High Level, Canada
Current Conditions -  °F | °C
As of 2:00 PM on Saturday 25 Oct 2014 (Local Time) from CYOJ Reporting Station
Scattered Clouds Scattered Clouds  
Wind Chill: 37°   Ceiling: Unl
Heat Index: 37°   Visibility: 15mi
Dew Point: 30°   Wind: 3mph
Humidity: 75%   Direction: 130°SE
Pressure: 29.89"   Gusts: NA
Location:  58.52°N, 117.13°W
Report Text: CYOJ 252000Z 13003KT 070V200 15SM SCT260 03/M01 A2989 RMK CI4 SLP142
Loading
Personal Weather Stations






























Interactive Weather Map
Tropical Storm Tracking
New forecast layout! Learn more

10-Day Weather Forecast

Advertisements
Track Severe Weather on mobile